Detall de PIREP

Printer-friendly versionPDF version

[2013/12/07 17:02:00]
Flight IATA:CT2308
Pilot Number:044
Company ICAO:CAT
Aircraft Type:BE20/A
PAX:6
Departing Airport: LIEA
Destination Airport: LIMJ
Alternate Airport:LIRP
Online: VATSIM
Route:MINKA L5 ROMPO Q125 ELB M729 IDONA
Flight Level:F160
No Slew and time accel
No pause
Crash detect
Detect pilot in Cockpit between each 30 and 45 minutes
17:02 Zero fuel Weight: 9478 Lbs, Fuel Weight: 2480 Lbs
17:02 VATSIM:LIEA 071650Z 22008KT 9999 BKN025 12/07 Q1024
17:02 VATSIM:LIMJ 071650Z 08005KT 9999 SCT015 13/10 Q1023
17:02 VOICE CATALONIAN
17:08 Parking Brakes off
17:17 Take-off
17:17 Take off Weight: 11887 Lbs
17:17 Wind: 220º @ 008 Knots Heading: 201º
17:17 POS N40º 38´ 01´´ E008º 17´ 29´´
17:17 Flaps:1 at 127 Knots
17:17 Gear Up: 111 Knots
17:17 Flaps:0 at 107 Knots
17:31 TOC
17:31 Fuel Weight: 2229 Lb
17:32 Wind:221º@018 Knots Heading: 068º Ground Speed: 231 Knots Altitude 16318 ft
17:47 Wind:309º@005 Knots Heading: 011º Ground Speed: 238 Knots Altitude 16305 ft
18:02 Wind:278º@004 Knots Heading: 013º Ground Speed: 241 Knots Altitude 16289 ft
18:17 Wind:064º@002 Knots Heading: 332º Ground Speed: 240 Knots Altitude 16309 ft
18:26 TOD
18:26 Fuel Weight: 1644 Lb
18:32 Wind:100º@001 Knots Heading: 330º Ground Speed: 180 Knots Altitude 10387 ft
18:40 Flaps:1 at 149 Knots
18:40 Flaps:2 at 146 Knots
18:41 Gear Down: 128 Knots
18:46 TouchDown:Rate -531 ft/min Speed: 100 Knots
18:47 Wind:031º@005 Knots Heading: 288º Ground Speed: 096 Knots Altitude 006 ft
18:47 VATSIM:LIMJ 071820Z 03005KT 9999 FEW015 12/09 Q1024
18:47 Land
18:47 Wind:031º@005 Knots
18:47 Heading: 273º
18:47 Flight Duration: 01:30
18:47 Landing Weight: 11029 Lbs
18:47 POS N44º 24´ 53´´ E008º 49´ 36´´
18:51 Parking brakes on
18:51 Block to Block Duration: 01:43
18:51 Final Fuel: 1538 Lbls
18:51 Spent Fuel: 941 Lbls
18:51 Flight Length: 324 NM
18:51 TOD Land Length: 59 NM

Exportar CSV

Powered by Drupal - Modified by Danger4k